sensor_id;sensor_type;location;lat;lon;timestamp;P1;durP1;ratioP1;P2;durP2;ratioP2
69588;SDS011;56792;50.644;17.984;2023-12-22T00:00:45;7.20;;;2.90;;
69588;SDS011;56792;50.644;17.984;2023-12-22T00:03:16;7.50;;;2.50;;
69588;SDS011;56792;50.644;17.984;2023-12-22T00:05:47;8.10;;;2.70;;
69588;SDS011;56792;50.644;17.984;2023-12-22T00:08:18;9.80;;;2.70;;
69588;SDS011;56792;50.644;17.984;2023-12-22T00:10:51;7.80;;;3.40;;
69588;SDS011;56792;50.644;17.984;2023-12-22T00:13:22;8.30;;;3.20;;
69588;SDS011;56792;50.644;17.984;2023-12-22T00:15:53;7.20;;;2.90;;
69588;SDS011;56792;50.644;17.984;2023-12-22T00:18:24;10.00;;;2.70;;
69588;SDS011;56792;50.644;17.984;2023-12-22T00:20:55;8.80;;;2.40;;
69588;SDS011;56792;50.644;17.984;2023-12-22T00:23:26;6.60;;;3.00;;
69588;SDS011;56792;50.644;17.984;2023-12-22T00:25:57;7.00;;;3.00;;
69588;SDS011;56792;50.644;17.984;2023-12-22T00:28:28;6.50;;;2.60;;
69588;SDS011;56792;50.644;17.984;2023-12-22T00:31:00;5.30;;;2.50;;
69588;SDS011;56792;50.644;17.984;2023-12-22T00:33:31;6.10;;;3.00;;
69588;SDS011;56792;50.644;17.984;2023-12-22T00:36:02;8.00;;;2.40;;
69588;SDS011;56792;50.644;17.984;2023-12-22T00:38:33;7.70;;;3.20;;
69588;SDS011;56792;50.644;17.984;2023-12-22T00:41:04;4.10;;;2.30;;
69588;SDS011;56792;50.644;17.984;2023-12-22T00:43:35;12.80;;;3.50;;
69588;SDS011;56792;50.644;17.984;2023-12-22T00:46:06;8.20;;;2.60;;
69588;SDS011;56792;50.644;17.984;2023-12-22T00:48:37;5.90;;;2.60;;
69588;SDS011;56792;50.644;17.984;2023-12-22T00:51:08;8.50;;;3.20;;
69588;SDS011;56792;50.644;17.984;2023-12-22T00:53:39;6.90;;;2.70;;
69588;SDS011;56792;50.644;17.984;2023-12-22T00:56:10;7.00;;;2.90;;
69588;SDS011;56792;50.644;17.984;2023-12-22T00:58:42;10.20;;;2.90;;
69588;SDS011;56792;50.644;17.984;2023-12-22T01:01:13;6.20;;;2.90;;
69588;SDS011;56792;50.644;17.984;2023-12-22T01:03:44;8.20;;;2.90;;
69588;SDS011;56792;50.644;17.984;2023-12-22T01:06:15;9.00;;;2.50;;
69588;SDS011;56792;50.644;17.984;2023-12-22T01:08:46;8.20;;;3.20;;
69588;SDS011;56792;50.644;17.984;2023-12-22T01:11:18;10.60;;;3.10;;
69588;SDS011;56792;50.644;17.984;2023-12-22T01:13:49;6.00;;;2.30;;
69588;SDS011;56792;50.644;17.984;2023-12-22T01:16:20;6.30;;;2.80;;
69588;SDS011;56792;50.644;17.984;2023-12-22T01:18:52;5.70;;;2.60;;
69588;SDS011;56792;50.644;17.984;2023-12-22T01:21:23;11.50;;;3.20;;
69588;SDS011;56792;50.644;17.984;2023-12-22T01:23:54;8.20;;;3.00;;
69588;SDS011;56792;50.644;17.984;2023-12-22T01:26:26;10.70;;;3.80;;
69588;SDS011;56792;50.644;17.984;2023-12-22T01:28:57;6.90;;;3.00;;
69588;SDS011;56792;50.644;17.984;2023-12-22T01:31:28;8.00;;;2.60;;
69588;SDS011;56792;50.644;17.984;2023-12-22T01:33:59;8.50;;;2.70;;
69588;SDS011;56792;50.644;17.984;2023-12-22T01:36:30;6.90;;;2.40;;
69588;SDS011;56792;50.644;17.984;2023-12-22T01:39:03;6.20;;;2.90;;
69588;SDS011;56792;50.644;17.984;2023-12-22T01:41:34;6.50;;;3.30;;
69588;SDS011;56792;50.644;17.984;2023-12-22T01:44:05;8.90;;;3.80;;
69588;SDS011;56792;50.644;17.984;2023-12-22T01:46:37;6.80;;;3.70;;
69588;SDS011;56792;50.644;17.984;2023-12-22T01:49:08;6.40;;;4.00;;
69588;SDS011;56792;50.644;17.984;2023-12-22T01:51:41;6.60;;;3.40;;
69588;SDS011;56792;50.644;17.984;2023-12-22T01:54:15;8.20;;;3.00;;
69588;SDS011;56792;50.644;17.984;2023-12-22T01:56:46;5.90;;;3.20;;
69588;SDS011;56792;50.644;17.984;2023-12-22T01:59:18;4.80;;;3.20;;
69588;SDS011;56792;50.644;17.984;2023-12-22T02:01:49;7.30;;;3.20;;
69588;SDS011;56792;50.644;17.984;2023-12-22T02:04:21;9.50;;;3.30;;
69588;SDS011;56792;50.644;17.984;2023-12-22T02:06:53;9.20;;;3.60;;
69588;SDS011;56792;50.644;17.984;2023-12-22T02:09:26;7.40;;;3.70;;
69588;SDS011;56792;50.644;17.984;2023-12-22T02:11:57;8.20;;;3.70;;
69588;SDS011;56792;50.644;17.984;2023-12-22T02:14:28;8.60;;;3.40;;
69588;SDS011;56792;50.644;17.984;2023-12-22T02:17:05;7.20;;;3.10;;
69588;SDS011;56792;50.644;17.984;2023-12-22T02:19:43;11.40;;;3.50;;
69588;SDS011;56792;50.644;17.984;2023-12-22T02:22:16;8.40;;;3.20;;
69588;SDS011;56792;50.644;17.984;2023-12-22T02:24:47;12.70;;;3.60;;
69588;SDS011;56792;50.644;17.984;2023-12-22T02:27:31;4.70;;;3.10;;
69588;SDS011;56792;50.644;17.984;2023-12-22T02:30:11;8.00;;;3.30;;
69588;SDS011;56792;50.644;17.984;2023-12-22T02:32:49;9.90;;;3.60;;
69588;SDS011;56792;50.644;17.984;2023-12-22T02:35:26;5.60;;;3.10;;
69588;SDS011;56792;50.644;17.984;2023-12-22T02:38:00;8.10;;;3.50;;
69588;SDS011;56792;50.644;17.984;2023-12-22T02:40:34;9.80;;;3.50;;
69588;SDS011;56792;50.644;17.984;2023-12-22T02:43:06;8.20;;;3.10;;
69588;SDS011;56792;50.644;17.984;2023-12-22T02:45:37;7.20;;;3.10;;
69588;SDS011;56792;50.644;17.984;2023-12-22T02:48:09;8.30;;;2.80;;
69588;SDS011;56792;50.644;17.984;2023-12-22T02:50:40;8.30;;;3.10;;
69588;SDS011;56792;50.644;17.984;2023-12-22T02:53:11;9.10;;;3.20;;
69588;SDS011;56792;50.644;17.984;2023-12-22T02:55:42;8.60;;;3.50;;
69588;SDS011;56792;50.644;17.984;2023-12-22T02:58:13;9.00;;;3.20;;
69588;SDS011;56792;50.644;17.984;2023-12-22T03:00:44;9.30;;;3.20;;
69588;SDS011;56792;50.644;17.984;2023-12-22T03:03:15;8.80;;;3.50;;
69588;SDS011;56792;50.644;17.984;2023-12-22T03:05:46;11.10;;;2.80;;
69588;SDS011;56792;50.644;17.984;2023-12-22T03:08:17;10.20;;;2.90;;
69588;SDS011;56792;50.644;17.984;2023-12-22T03:10:48;12.00;;;3.40;;
69588;SDS011;56792;50.644;17.984;2023-12-22T03:13:20;7.70;;;2.90;;
69588;SDS011;56792;50.644;17.984;2023-12-22T03:15:51;10.50;;;3.30;;
69588;SDS011;56792;50.644;17.984;2023-12-22T03:18:22;5.60;;;3.10;;
69588;SDS011;56792;50.644;17.984;2023-12-22T03:20:53;8.30;;;2.70;;
69588;SDS011;56792;50.644;17.984;2023-12-22T03:23:24;7.60;;;3.00;;
69588;SDS011;56792;50.644;17.984;2023-12-22T03:25:55;10.20;;;3.20;;
69588;SDS011;56792;50.644;17.984;2023-12-22T03:28:26;4.90;;;2.50;;
69588;SDS011;56792;50.644;17.984;2023-12-22T03:30:57;5.70;;;2.70;;
69588;SDS011;56792;50.644;17.984;2023-12-22T03:33:28;5.70;;;2.10;;
69588;SDS011;56792;50.644;17.984;2023-12-22T03:35:59;4.10;;;2.20;;
69588;SDS011;56792;50.644;17.984;2023-12-22T03:38:30;4.80;;;3.10;;
69588;SDS011;56792;50.644;17.984;2023-12-22T03:41:01;4.70;;;2.70;;
69588;SDS011;56792;50.644;17.984;2023-12-22T03:43:32;6.90;;;2.90;;
69588;SDS011;56792;50.644;17.984;2023-12-22T03:46:03;4.20;;;2.20;;
69588;SDS011;56792;50.644;17.984;2023-12-22T03:48:34;5.20;;;2.80;;
69588;SDS011;56792;50.644;17.984;2023-12-22T03:51:05;6.50;;;2.80;;
69588;SDS011;56792;50.644;17.984;2023-12-22T03:53:38;6.70;;;2.60;;
69588;SDS011;56792;50.644;17.984;2023-12-22T03:56:09;6.40;;;3.10;;
69588;SDS011;56792;50.644;17.984;2023-12-22T03:58:41;6.70;;;3.10;;
69588;SDS011;56792;50.644;17.984;2023-12-22T04:01:15;8.20;;;2.80;;
69588;SDS011;56792;50.644;17.984;2023-12-22T04:03:46;6.20;;;3.00;;
69588;SDS011;56792;50.644;17.984;2023-12-22T04:06:17;4.50;;;2.90;;
69588;SDS011;56792;50.644;17.984;2023-12-22T04:08:48;4.20;;;3.80;;
69588;SDS011;56792;50.644;17.984;2023-12-22T04:11:19;4.60;;;2.90;;
69588;SDS011;56792;50.644;17.984;2023-12-22T04:13:50;5.40;;;2.90;;
69588;SDS011;56792;50.644;17.984;2023-12-22T04:16:20;6.80;;;4.40;;
69588;SDS011;56792;50.644;17.984;2023-12-22T04:18:51;5.30;;;3.70;;
69588;SDS011;56792;50.644;17.984;2023-12-22T04:21:22;5.60;;;2.10;;
69588;SDS011;56792;50.644;17.984;2023-12-22T04:23:53;8.50;;;2.30;;
69588;SDS011;56792;50.644;17.984;2023-12-22T04:26:24;4.80;;;2.50;;
69588;SDS011;56792;50.644;17.984;2023-12-22T04:28:55;6.00;;;2.40;;
69588;SDS011;56792;50.644;17.984;2023-12-22T04:31:26;5.50;;;2.70;;
69588;SDS011;56792;50.644;17.984;2023-12-22T04:33:57;5.00;;;2.50;;
69588;SDS011;56792;50.644;17.984;2023-12-22T04:36:28;5.40;;;2.30;;
69588;SDS011;56792;50.644;17.984;2023-12-22T04:38:59;5.40;;;2.50;;
69588;SDS011;56792;50.644;17.984;2023-12-22T04:41:30;7.10;;;2.50;;
69588;SDS011;56792;50.644;17.984;2023-12-22T04:44:01;4.30;;;2.10;;
69588;SDS011;56792;50.644;17.984;2023-12-22T04:46:33;3.80;;;2.10;;
69588;SDS011;56792;50.644;17.984;2023-12-22T04:49:04;5.00;;;2.60;;
69588;SDS011;56792;50.644;17.984;2023-12-22T04:51:34;7.00;;;2.70;;
69588;SDS011;56792;50.644;17.984;2023-12-22T04:54:05;8.40;;;3.00;;
69588;SDS011;56792;50.644;17.984;2023-12-22T04:56:37;6.50;;;2.90;;
69588;SDS011;56792;50.644;17.984;2023-12-22T04:59:08;6.30;;;2.70;;
69588;SDS011;56792;50.644;17.984;2023-12-22T05:01:38;4.90;;;2.60;;
69588;SDS011;56792;50.644;17.984;2023-12-22T05:04:10;8.70;;;3.20;;
69588;SDS011;56792;50.644;17.984;2023-12-22T05:06:41;6.10;;;2.50;;
69588;SDS011;56792;50.644;17.984;2023-12-22T05:09:13;8.10;;;3.50;;
69588;SDS011;56792;50.644;17.984;2023-12-22T05:11:44;5.80;;;3.30;;
69588;SDS011;56792;50.644;17.984;2023-12-22T05:14:15;9.30;;;3.10;;
69588;SDS011;56792;50.644;17.984;2023-12-22T05:16:46;10.80;;;2.90;;
69588;SDS011;56792;50.644;17.984;2023-12-22T05:19:17;6.30;;;2.70;;
69588;SDS011;56792;50.644;17.984;2023-12-22T05:21:49;10.30;;;4.20;;
69588;SDS011;56792;50.644;17.984;2023-12-22T05:24:24;13.90;;;5.30;;
69588;SDS011;56792;50.644;17.984;2023-12-22T05:26:55;12.20;;;6.70;;
69588;SDS011;56792;50.644;17.984;2023-12-22T05:29:26;13.10;;;9.60;;
69588;SDS011;56792;50.644;17.984;2023-12-22T05:31:57;15.80;;;8.70;;
69588;SDS011;56792;50.644;17.984;2023-12-22T05:34:28;10.70;;;6.20;;
69588;SDS011;56792;50.644;17.984;2023-12-22T05:37:00;8.80;;;4.70;;
69588;SDS011;56792;50.644;17.984;2023-12-22T05:39:30;9.10;;;4.40;;
69588;SDS011;56792;50.644;17.984;2023-12-22T05:42:02;7.20;;;3.10;;
69588;SDS011;56792;50.644;17.984;2023-12-22T05:44:33;5.90;;;3.00;;
69588;SDS011;56792;50.644;17.984;2023-12-22T05:47:04;10.30;;;3.40;;
69588;SDS011;56792;50.644;17.984;2023-12-22T05:49:35;114.70;;;31.50;;
69588;SDS011;56792;50.644;17.984;2023-12-22T05:52:08;74.00;;;21.50;;
69588;SDS011;56792;50.644;17.984;2023-12-22T05:54:40;27.40;;;10.00;;
69588;SDS011;56792;50.644;17.984;2023-12-22T05:57:11;34.00;;;12.40;;
69588;SDS011;56792;50.644;17.984;2023-12-22T05:59:42;47.00;;;16.10;;
69588;SDS011;56792;50.644;17.984;2023-12-22T06:02:13;43.60;;;13.50;;
69588;SDS011;56792;50.644;17.984;2023-12-22T06:04:44;15.30;;;5.90;;
69588;SDS011;56792;50.644;17.984;2023-12-22T06:07:15;52.90;;;12.80;;
69588;SDS011;56792;50.644;17.984;2023-12-22T06:09:47;75.60;;;22.20;;
69588;SDS011;56792;50.644;17.984;2023-12-22T06:12:18;28.60;;;9.80;;
69588;SDS011;56792;50.644;17.984;2023-12-22T06:14:49;23.60;;;7.60;;
69588;SDS011;56792;50.644;17.984;2023-12-22T06:17:20;19.30;;;8.60;;
69588;SDS011;56792;50.644;17.984;2023-12-22T06:19:51;37.10;;;14.50;;
69588;SDS011;56792;50.644;17.984;2023-12-22T06:22:22;28.80;;;10.60;;
69588;SDS011;56792;50.644;17.984;2023-12-22T06:24:53;16.70;;;6.70;;
69588;SDS011;56792;50.644;17.984;2023-12-22T06:27:24;16.00;;;6.90;;
69588;SDS011;56792;50.644;17.984;2023-12-22T06:29:55;11.00;;;5.40;;
69588;SDS011;56792;50.644;17.984;2023-12-22T06:32:26;11.70;;;4.50;;
69588;SDS011;56792;50.644;17.984;2023-12-22T06:34:58;12.10;;;4.40;;
69588;SDS011;56792;50.644;17.984;2023-12-22T06:37:29;12.80;;;3.30;;
69588;SDS011;56792;50.644;17.984;2023-12-22T06:40:00;6.30;;;3.00;;
69588;SDS011;56792;50.644;17.984;2023-12-22T06:42:31;4.60;;;2.40;;
69588;SDS011;56792;50.644;17.984;2023-12-22T06:45:02;13.20;;;4.30;;
69588;SDS011;56792;50.644;17.984;2023-12-22T06:47:34;8.50;;;3.00;;
69588;SDS011;56792;50.644;17.984;2023-12-22T06:50:06;17.20;;;4.60;;
69588;SDS011;56792;50.644;17.984;2023-12-22T06:52:38;6.30;;;3.30;;
69588;SDS011;56792;50.644;17.984;2023-12-22T06:55:09;8.20;;;3.20;;
69588;SDS011;56792;50.644;17.984;2023-12-22T06:57:40;6.60;;;3.50;;
69588;SDS011;56792;50.644;17.984;2023-12-22T07:00:14;12.20;;;5.60;;
69588;SDS011;56792;50.644;17.984;2023-12-22T07:02:45;12.10;;;5.40;;
69588;SDS011;56792;50.644;17.984;2023-12-22T07:05:35;15.00;;;5.70;;
69588;SDS011;56792;50.644;17.984;2023-12-22T07:08:07;11.60;;;4.40;;
69588;SDS011;56792;50.644;17.984;2023-12-22T07:10:38;13.70;;;5.50;;
69588;SDS011;56792;50.644;17.984;2023-12-22T07:13:09;12.10;;;5.50;;
69588;SDS011;56792;50.644;17.984;2023-12-22T07:15:40;9.50;;;4.70;;
69588;SDS011;56792;50.644;17.984;2023-12-22T07:18:11;11.20;;;4.80;;
69588;SDS011;56792;50.644;17.984;2023-12-22T07:20:42;12.50;;;5.30;;
69588;SDS011;56792;50.644;17.984;2023-12-22T07:23:13;10.10;;;5.10;;
69588;SDS011;56792;50.644;17.984;2023-12-22T07:25:44;10.10;;;4.80;;
69588;SDS011;56792;50.644;17.984;2023-12-22T07:28:16;12.80;;;5.60;;
69588;SDS011;56792;50.644;17.984;2023-12-22T07:30:47;9.10;;;4.50;;
69588;SDS011;56792;50.644;17.984;2023-12-22T07:33:18;8.70;;;4.30;;
69588;SDS011;56792;50.644;17.984;2023-12-22T07:35:49;7.00;;;3.80;;
69588;SDS011;56792;50.644;17.984;2023-12-22T07:38:20;8.50;;;4.00;;
69588;SDS011;56792;50.644;17.984;2023-12-22T07:40:51;7.90;;;3.70;;
69588;SDS011;56792;50.644;17.984;2023-12-22T07:43:22;6.50;;;3.70;;
69588;SDS011;56792;50.644;17.984;2023-12-22T07:45:53;8.00;;;3.50;;
69588;SDS011;56792;50.644;17.984;2023-12-22T07:48:24;8.60;;;3.60;;
69588;SDS011;56792;50.644;17.984;2023-12-22T07:50:55;6.60;;;3.50;;
69588;SDS011;56792;50.644;17.984;2023-12-22T07:53:26;8.30;;;4.00;;
69588;SDS011;56792;50.644;17.984;2023-12-22T07:55:57;8.50;;;3.60;;
69588;SDS011;56792;50.644;17.984;2023-12-22T07:58:28;6.10;;;3.00;;
69588;SDS011;56792;50.644;17.984;2023-12-22T08:01:00;5.40;;;3.10;;
69588;SDS011;56792;50.644;17.984;2023-12-22T08:03:31;5.50;;;3.00;;
69588;SDS011;56792;50.644;17.984;2023-12-22T08:06:03;4.60;;;2.70;;
69588;SDS011;56792;50.644;17.984;2023-12-22T08:08:35;6.30;;;3.00;;
69588;SDS011;56792;50.644;17.984;2023-12-22T08:11:06;5.90;;;3.00;;
69588;SDS011;56792;50.644;17.984;2023-12-22T08:13:37;7.20;;;2.90;;
69588;SDS011;56792;50.644;17.984;2023-12-22T08:16:08;5.70;;;3.10;;
69588;SDS011;56792;50.644;17.984;2023-12-22T08:18:39;6.90;;;3.20;;
69588;SDS011;56792;50.644;17.984;2023-12-22T08:21:10;5.10;;;3.10;;
69588;SDS011;56792;50.644;17.984;2023-12-22T08:23:43;6.60;;;3.30;;
69588;SDS011;56792;50.644;17.984;2023-12-22T08:26:14;4.80;;;3.00;;
69588;SDS011;56792;50.644;17.984;2023-12-22T08:28:47;6.60;;;3.30;;
69588;SDS011;56792;50.644;17.984;2023-12-22T08:31:18;4.70;;;3.00;;
69588;SDS011;56792;50.644;17.984;2023-12-22T08:33:50;4.60;;;3.50;;
69588;SDS011;56792;50.644;17.984;2023-12-22T08:36:21;5.30;;;3.40;;
69588;SDS011;56792;50.644;17.984;2023-12-22T08:38:52;5.40;;;3.20;;
69588;SDS011;56792;50.644;17.984;2023-12-22T08:41:23;4.20;;;2.50;;
69588;SDS011;56792;50.644;17.984;2023-12-22T08:43:55;4.20;;;3.00;;
69588;SDS011;56792;50.644;17.984;2023-12-22T08:46:26;4.20;;;2.90;;
69588;SDS011;56792;50.644;17.984;2023-12-22T08:48:57;4.90;;;3.10;;
69588;SDS011;56792;50.644;17.984;2023-12-22T08:51:28;8.20;;;3.30;;
69588;SDS011;56792;50.644;17.984;2023-12-22T08:53:59;4.20;;;3.30;;
69588;SDS011;56792;50.644;17.984;2023-12-22T08:56:32;5.30;;;3.00;;
69588;SDS011;56792;50.644;17.984;2023-12-22T08:59:03;6.00;;;2.80;;
69588;SDS011;56792;50.644;17.984;2023-12-22T09:01:36;6.70;;;3.00;;
69588;SDS011;56792;50.644;17.984;2023-12-22T09:04:10;6.70;;;2.80;;
69588;SDS011;56792;50.644;17.984;2023-12-22T09:06:41;5.20;;;3.10;;
69588;SDS011;56792;50.644;17.984;2023-12-22T09:09:12;9.50;;;4.70;;
69588;SDS011;56792;50.644;17.984;2023-12-22T09:11:43;12.60;;;5.60;;
69588;SDS011;56792;50.644;17.984;2023-12-22T09:14:14;11.50;;;4.90;;
69588;SDS011;56792;50.644;17.984;2023-12-22T09:16:45;7.40;;;4.20;;
69588;SDS011;56792;50.644;17.984;2023-12-22T09:19:16;7.90;;;3.80;;
69588;SDS011;56792;50.644;17.984;2023-12-22T09:21:47;23.50;;;9.00;;
69588;SDS011;56792;50.644;17.984;2023-12-22T09:24:18;26.20;;;9.50;;
69588;SDS011;56792;50.644;17.984;2023-12-22T09:26:49;29.70;;;10.10;;
69588;SDS011;56792;50.644;17.984;2023-12-22T09:29:20;21.10;;;8.00;;
69588;SDS011;56792;50.644;17.984;2023-12-22T09:31:52;13.90;;;6.80;;
69588;SDS011;56792;50.644;17.984;2023-12-22T09:34:23;10.00;;;4.50;;
69588;SDS011;56792;50.644;17.984;2023-12-22T09:36:57;6.60;;;3.60;;
69588;SDS011;56792;50.644;17.984;2023-12-22T09:39:28;6.10;;;3.30;;
69588;SDS011;56792;50.644;17.984;2023-12-22T09:41:59;7.10;;;3.70;;
69588;SDS011;56792;50.644;17.984;2023-12-22T09:44:32;5.60;;;3.70;;
69588;SDS011;56792;50.644;17.984;2023-12-22T09:47:06;4.10;;;2.60;;
69588;SDS011;56792;50.644;17.984;2023-12-22T09:49:40;7.50;;;3.80;;
69588;SDS011;56792;50.644;17.984;2023-12-22T09:52:12;8.70;;;3.70;;
69588;SDS011;56792;50.644;17.984;2023-12-22T09:54:45;8.00;;;3.40;;
69588;SDS011;56792;50.644;17.984;2023-12-22T09:57:18;3.90;;;2.70;;
69588;SDS011;56792;50.644;17.984;2023-12-22T09:59:50;4.70;;;3.20;;
69588;SDS011;56792;50.644;17.984;2023-12-22T10:02:23;5.30;;;2.80;;
69588;SDS011;56792;50.644;17.984;2023-12-22T10:04:54;5.70;;;2.70;;
69588;SDS011;56792;50.644;17.984;2023-12-22T10:07:26;6.30;;;3.00;;
69588;SDS011;56792;50.644;17.984;2023-12-22T10:10:00;5.00;;;2.60;;
69588;SDS011;56792;50.644;17.984;2023-12-22T10:12:34;4.20;;;3.00;;
69588;SDS011;56792;50.644;17.984;2023-12-22T10:15:10;4.70;;;3.50;;
69588;SDS011;56792;50.644;17.984;2023-12-22T10:17:42;4.50;;;2.80;;
69588;SDS011;56792;50.644;17.984;2023-12-22T10:20:13;4.20;;;3.00;;
69588;SDS011;56792;50.644;17.984;2023-12-22T10:22:44;4.60;;;2.80;;
69588;SDS011;56792;50.644;17.984;2023-12-22T10:25:19;3.80;;;2.50;;
69588;SDS011;56792;50.644;17.984;2023-12-22T10:27:57;5.30;;;3.20;;
69588;SDS011;56792;50.644;17.984;2023-12-22T10:30:28;5.70;;;3.50;;
69588;SDS011;56792;50.644;17.984;2023-12-22T10:33:00;7.00;;;3.40;;
69588;SDS011;56792;50.644;17.984;2023-12-22T10:35:34;4.50;;;3.40;;
69588;SDS011;56792;50.644;17.984;2023-12-22T10:38:06;6.40;;;2.80;;
69588;SDS011;56792;50.644;17.984;2023-12-22T10:40:39;5.60;;;3.50;;
69588;SDS011;56792;50.644;17.984;2023-12-22T10:43:10;6.00;;;2.80;;
69588;SDS011;56792;50.644;17.984;2023-12-22T10:45:43;6.70;;;3.30;;
69588;SDS011;56792;50.644;17.984;2023-12-22T10:48:14;5.40;;;3.20;;
69588;SDS011;56792;50.644;17.984;2023-12-22T10:50:46;7.70;;;3.60;;
69588;SDS011;56792;50.644;17.984;2023-12-22T10:53:17;6.50;;;3.60;;
69588;SDS011;56792;50.644;17.984;2023-12-22T10:55:52;7.40;;;3.40;;
69588;SDS011;56792;50.644;17.984;2023-12-22T10:58:23;6.40;;;3.70;;
69588;SDS011;56792;50.644;17.984;2023-12-22T11:00:55;4.90;;;2.90;;
69588;SDS011;56792;50.644;17.984;2023-12-22T11:03:28;8.10;;;3.40;;
69588;SDS011;56792;50.644;17.984;2023-12-22T11:06:04;5.80;;;3.30;;
69588;SDS011;56792;50.644;17.984;2023-12-22T11:08:39;7.70;;;4.30;;
69588;SDS011;56792;50.644;17.984;2023-12-22T11:11:15;8.20;;;4.50;;
69588;SDS011;56792;50.644;17.984;2023-12-22T11:13:50;7.40;;;3.80;;
69588;SDS011;56792;50.644;17.984;2023-12-22T11:16:22;6.10;;;3.30;;
69588;SDS011;56792;50.644;17.984;2023-12-22T11:18:56;10.30;;;3.70;;
69588;SDS011;56792;50.644;17.984;2023-12-22T11:21:28;6.60;;;3.80;;
69588;SDS011;56792;50.644;17.984;2023-12-22T11:24:00;10.40;;;3.30;;
69588;SDS011;56792;50.644;17.984;2023-12-22T11:26:32;6.10;;;3.00;;
69588;SDS011;56792;50.644;17.984;2023-12-22T11:29:04;5.40;;;3.00;;
69588;SDS011;56792;50.644;17.984;2023-12-22T11:31:37;5.80;;;3.10;;
69588;SDS011;56792;50.644;17.984;2023-12-22T11:34:10;8.50;;;3.70;;
69588;SDS011;56792;50.644;17.984;2023-12-22T11:36:43;7.50;;;3.40;;
69588;SDS011;56792;50.644;17.984;2023-12-22T11:39:16;4.60;;;2.60;;
69588;SDS011;56792;50.644;17.984;2023-12-22T11:41:48;5.90;;;2.80;;
69588;SDS011;56792;50.644;17.984;2023-12-22T11:44:20;6.60;;;3.10;;
69588;SDS011;56792;50.644;17.984;2023-12-22T11:47:04;8.40;;;3.40;;
69588;SDS011;56792;50.644;17.984;2023-12-22T11:49:37;7.20;;;3.50;;
69588;SDS011;56792;50.644;17.984;2023-12-22T11:52:16;7.00;;;3.30;;
69588;SDS011;56792;50.644;17.984;2023-12-22T11:54:49;5.50;;;2.90;;
69588;SDS011;56792;50.644;17.984;2023-12-22T11:57:35;4.60;;;2.70;;
69588;SDS011;56792;50.644;17.984;2023-12-22T12:03:09;29.00;;;3.60;;
69588;SDS011;56792;50.644;17.984;2023-12-22T12:05:43;5.70;;;3.70;;
69588;SDS011;56792;50.644;17.984;2023-12-22T12:08:14;5.30;;;2.80;;
69588;SDS011;56792;50.644;17.984;2023-12-22T12:10:58;6.00;;;3.20;;
69588;SDS011;56792;50.644;17.984;2023-12-22T12:13:32;4.00;;;2.80;;
69588;SDS011;56792;50.644;17.984;2023-12-22T12:16:08;5.20;;;2.90;;
69588;SDS011;56792;50.644;17.984;2023-12-22T12:18:42;4.80;;;3.00;;
69588;SDS011;56792;50.644;17.984;2023-12-22T12:21:15;6.90;;;3.40;;
69588;SDS011;56792;50.644;17.984;2023-12-22T12:23:49;6.90;;;2.90;;
69588;SDS011;56792;50.644;17.984;2023-12-22T12:26:20;4.70;;;2.50;;
69588;SDS011;56792;50.644;17.984;2023-12-22T12:28:53;6.50;;;3.00;;
69588;SDS011;56792;50.644;17.984;2023-12-22T12:31:36;6.80;;;3.10;;
69588;SDS011;56792;50.644;17.984;2023-12-22T12:34:11;5.20;;;3.10;;
69588;SDS011;56792;50.644;17.984;2023-12-22T12:36:46;6.60;;;3.30;;
69588;SDS011;56792;50.644;17.984;2023-12-22T12:39:18;5.30;;;3.00;;
69588;SDS011;56792;50.644;17.984;2023-12-22T12:41:56;4.40;;;2.70;;
69588;SDS011;56792;50.644;17.984;2023-12-22T12:44:31;4.60;;;2.80;;
69588;SDS011;56792;50.644;17.984;2023-12-22T12:47:14;7.00;;;2.80;;
69588;SDS011;56792;50.644;17.984;2023-12-22T12:49:45;5.80;;;3.50;;
69588;SDS011;56792;50.644;17.984;2023-12-22T12:52:25;8.10;;;4.20;;
69588;SDS011;56792;50.644;17.984;2023-12-22T12:54:57;6.10;;;4.20;;
69588;SDS011;56792;50.644;17.984;2023-12-22T12:57:29;14.80;;;8.50;;
69588;SDS011;56792;50.644;17.984;2023-12-22T13:00:03;10.50;;;5.50;;
69588;SDS011;56792;50.644;17.984;2023-12-22T13:02:36;15.10;;;7.20;;
69588;SDS011;56792;50.644;17.984;2023-12-22T13:05:08;8.10;;;3.20;;
69588;SDS011;56792;50.644;17.984;2023-12-22T13:07:49;5.50;;;3.50;;
69588;SDS011;56792;50.644;17.984;2023-12-22T13:10:23;8.80;;;4.20;;
69588;SDS011;56792;50.644;17.984;2023-12-22T13:12:57;6.80;;;3.20;;
69588;SDS011;56792;50.644;17.984;2023-12-22T13:15:28;7.40;;;3.40;;
69588;SDS011;56792;50.644;17.984;2023-12-22T13:17:59;6.50;;;3.20;;
69588;SDS011;56792;50.644;17.984;2023-12-22T13:20:31;6.30;;;3.30;;
69588;SDS011;56792;50.644;17.984;2023-12-22T13:23:04;7.00;;;3.00;;
69588;SDS011;56792;50.644;17.984;2023-12-22T13:25:40;7.30;;;3.00;;
69588;SDS011;56792;50.644;17.984;2023-12-22T13:28:11;6.90;;;3.10;;
69588;SDS011;56792;50.644;17.984;2023-12-22T13:30:42;9.10;;;3.20;;
69588;SDS011;56792;50.644;17.984;2023-12-22T13:33:14;5.80;;;2.90;;
69588;SDS011;56792;50.644;17.984;2023-12-22T13:35:45;8.20;;;3.70;;
69588;SDS011;56792;50.644;17.984;2023-12-22T13:38:16;8.40;;;3.00;;
69588;SDS011;56792;50.644;17.984;2023-12-22T13:40:48;9.40;;;3.70;;
69588;SDS011;56792;50.644;17.984;2023-12-22T13:43:19;9.10;;;3.20;;
69588;SDS011;56792;50.644;17.984;2023-12-22T13:45:52;10.30;;;4.00;;
69588;SDS011;56792;50.644;17.984;2023-12-22T13:48:23;8.00;;;3.20;;
69588;SDS011;56792;50.644;17.984;2023-12-22T13:50:59;9.00;;;3.90;;
69588;SDS011;56792;50.644;17.984;2023-12-22T13:53:31;8.90;;;3.80;;
69588;SDS011;56792;50.644;17.984;2023-12-22T13:56:03;8.20;;;3.10;;
69588;SDS011;56792;50.644;17.984;2023-12-22T13:58:44;7.80;;;3.50;;
69588;SDS011;56792;50.644;17.984;2023-12-22T14:01:16;11.30;;;4.40;;
69588;SDS011;56792;50.644;17.984;2023-12-22T14:03:47;6.90;;;2.60;;
69588;SDS011;56792;50.644;17.984;2023-12-22T14:06:18;11.30;;;3.10;;
69588;SDS011;56792;50.644;17.984;2023-12-22T14:08:49;10.20;;;3.50;;
69588;SDS011;56792;50.644;17.984;2023-12-22T14:11:20;9.00;;;4.30;;
69588;SDS011;56792;50.644;17.984;2023-12-22T14:13:51;8.30;;;3.90;;
69588;SDS011;56792;50.644;17.984;2023-12-22T14:16:22;9.40;;;3.90;;
69588;SDS011;56792;50.644;17.984;2023-12-22T14:18:53;8.30;;;3.80;;
69588;SDS011;56792;50.644;17.984;2023-12-22T14:21:24;8.60;;;3.50;;
69588;SDS011;56792;50.644;17.984;2023-12-22T14:23:55;7.50;;;3.60;;
69588;SDS011;56792;50.644;17.984;2023-12-22T14:26:26;12.50;;;4.00;;
69588;SDS011;56792;50.644;17.984;2023-12-22T14:28:58;8.60;;;3.50;;
69588;SDS011;56792;50.644;17.984;2023-12-22T14:31:29;10.10;;;3.90;;
69588;SDS011;56792;50.644;17.984;2023-12-22T14:34:00;7.80;;;3.20;;
69588;SDS011;56792;50.644;17.984;2023-12-22T14:36:31;6.50;;;3.00;;
69588;SDS011;56792;50.644;17.984;2023-12-22T14:39:02;6.40;;;2.70;;
69588;SDS011;56792;50.644;17.984;2023-12-22T14:41:33;9.40;;;3.20;;
69588;SDS011;56792;50.644;17.984;2023-12-22T14:44:04;6.20;;;3.00;;
69588;SDS011;56792;50.644;17.984;2023-12-22T14:46:38;8.20;;;3.10;;
69588;SDS011;56792;50.644;17.984;2023-12-22T14:49:09;8.20;;;3.70;;
69588;SDS011;56792;50.644;17.984;2023-12-22T14:51:40;10.90;;;4.10;;
69588;SDS011;56792;50.644;17.984;2023-12-22T14:54:11;9.00;;;3.40;;
69588;SDS011;56792;50.644;17.984;2023-12-22T14:56:42;9.40;;;2.80;;
69588;SDS011;56792;50.644;17.984;2023-12-22T14:59:14;8.20;;;3.90;;
69588;SDS011;56792;50.644;17.984;2023-12-22T15:01:45;7.90;;;2.90;;